Grantsville, MD (21536)

12:26 PM EST on February 08, 2016 (GMT -0500)
The Highlands | | Change Station
CLOSE
Current Station
Personal Weather Station
Location: Grantsville, MD
Elevation: 2526 ft
Nearby Weather Stations
Active Advisory: Winter Weather Advisory

Elev 2526 ft 39.72 °N, 79.07 °W | Updated 13 seconds ago

Mostly Cloudy
Mostly Cloudy
36.9 °F
Feels Like 32 °F
N
5.8
Wind Variable Wind from SSE

Today
High -- | Low -- °F
--% Chance of Precip.
Yesterday
High -- | Low -- °F
Precip. -- in
Pressure 29.58 in
Visibility 10.0 miles
Clouds Scattered Clouds 7500 ft
Overcast 9000 ft
Windchill 32 °F
Dew Point 22 °F
Humidity 55%
Rainfall 0.00 in
Snow Depth Not available.
7:17 AM 5:44 PM
New Moon, 0% visible
METAR K2G4 081710Z AUTO 13012G16KT 10SM SCT075 OVC090 01/M05 A2958 RMK AO1
Pressure 29.58 in
Visibility 10.0 miles
Clouds Scattered Clouds 7500 ft
Overcast 9000 ft
Windchill 32 °F
Dew Point 22 °F
Humidity 55%
Rainfall 0.00 in
Snow Depth Not available.
7:17 AM 5:44 PM
New Moon, 0% visible
METAR K2G4 081710Z AUTO 13012G16KT 10SM SCT075 OVC090 01/M05 A2958 RMK AO1

10-Day Weather Forecast

Almanac

Astronomy

Feb. 08, 2016 Rise Set
Actual Time
Civil Twilight
Nautical Twilight
Astronomical Twilight
Moon
Length of Visible Light
Length of Day
Tomorrow will be .
, % of the Moon is Illuminated

Today's Extremes

State Highs State Lows

Community

WunderPhotos

Upload Photos

1,891,471 photos uploaded!

WunderBlog® & News

Nearby

Air Quality

  Air Quality AQ Index Pollutant
Not available.

Snow Depth

Station Depth Elevation

Earthquake Activity

City Distance Mag. Time & Date
Minimum magnitude displayed is 2.5.

Coastal Water Temperatures

Place Temperature

Stations

Nearby Weather Stations

Station Location Temp. Windchill Dew Point Humidity Wind Precip. Elev Updated Type
                   

Watches & Warnings

Winter Weather Advisory
Issued: 9:45 AM EST Feb. 8, 2016 – National Weather Service

... Winter Weather Advisory remains in effect until 7 PM EST
Wednesday...

* snow accumulation... 2 to 4 inches through early Tuesday... with
an additional 2 to 4 inches then expected through Wednesday
morning.

* Snow beginning... early Monday afternoon.

* Period of most intense snow... Monday night into Tuesday
morning.

* Snow ending... snow will continue into Wednesday before
gradually tapering down thereafter.

* Impacts... hazardous travel conditions are expected due to snow.

Precautionary/preparedness actions...

A Winter Weather Advisory for snow means that periods of snow
will cause primarily travel difficulties. Be prepared for snow
covered roads and limited visibilities... and use caution while
driving.